Airfield :
LOGIN :

Register | Disclaimer

   EN    FR    IT 

 










Legend :    VFR   Marginal VFR   IFR   Intensive IFR   Very Intensive IFR
Visi :
Ceiling :
>= 8 km
>= 3000ft
5 to 8 km
1000 to 3000 ft
1500m to 5 km
500 to 1000 ft
800 to 1500m
200 to 500 ft
< 800m
< 200 ft
Symbols :   Thunderstorms  Fog  Heavy snow  Heavy precipitations  Wind > 20 kt
SIGMETs :     Misc.  Thunderstorms  Icing  Turbulence  Mountain Waves  Volcanic Ashes







- Airport Elevation : 20 ft
- IATA code : BJA


DAAE - Soummam - Bejaia

CURRENT METAR :
  • 181600Z 32005KT 8000 FEW020TCU BKN040 15/10 Q1016

EXPIRED METARs :
  • 181500Z 24004KT 9999 FEW010 FEW020TCU BKN040 15/08 Q1016
  • 181400Z 27006KT 9999 FEW020 SCT040 BKN090 15/08 Q1016

TAF TAF DAAE
Valid from the 18 at 12:00 until the 19 at 12:00 UTC


181100Z 1812/1912 29014KT 9999 FEW023 BKN090
PROB40
TEMPO 1814/1822 27015G25KT 4000 RA FEW020CB BKN023
BECMG 1822/1824 22008KT
PROB40
TEMPO 1904/1912 5000 RA FEW020CB BKN015
BECMG 1908/1910 28012KT
No reported NOTAMs for that airfield.



MET'MAP, your aeronautical weather chart ! - Copyright ORBIFLY December 2007 - Disclaimer

ORBIFLY MET'MAP TEAM :

Programming & Development : Alexandra Zaïnal
Concept & Development : Baudouin d'Aumeries
Co-Development & Prog : Marc-Olivier Méhu
Technical & hardware support : Manuel Goepfert

Contact : metmap@orbifly.com




SOURCES & CREDITS :

   NOAA